Time;durP1;ratioP1;P1;durP2;ratioP2;P2;SDS_P1;SDS_P2;PMS_P1;PMS_P2;Temp;Humidity;BMP_temperature;BMP_pressure;BME280_temperature;BME280_humidity;BME280_pressure;Samples;Min_cycle;Max_cycle;Signal;HPM_P1;HPM_P2
2022/02/15 00:01:19;;;;;;;7.00;4.30;;;;;;;;;;2615209;54;20430;-77
2022/02/15 00:03:45;;;;;;;4.57;4.33;;;;;;;;;;2615320;31;20907;-77
2022/02/15 00:06:12;;;;;;;4.00;3.60;;;;;;;;;;2614678;47;20430;-77
2022/02/15 00:08:38;;;;;;;8.47;4.90;;;;;;;;;;2615570;54;20958;-77
2022/02/15 00:11:05;;;;;;;6.50;4.27;;;;;;;;;;2614916;54;20403;-77
2022/02/15 00:13:31;;;;;;;4.90;3.70;;;;;;;;;;2615773;54;20414;-78
2022/02/15 00:15:57;;;;;;;6.30;3.77;;;;;;;;;;2615542;54;20427;-77
2022/02/15 00:18:23;;;;;;;4.93;4.40;;;;;;;;;;2616218;54;20618;-77
2022/02/15 00:20:50;;;;;;;10.57;5.87;;;;;;;;;;2615285;54;20500;-77
2022/02/15 00:23:16;;;;;;;8.10;4.27;;;;;;;;;;2616093;39;20799;-77
2022/02/15 00:25:42;;;;;;;4.50;4.10;;;;;;;;;;2614977;47;20415;-77
2022/02/15 00:28:08;;;;;;;6.07;4.20;;;;;;;;;;2614020;39;20889;-77
2022/02/15 00:30:35;;;;;;;5.73;4.33;;;;;;;;;;2616479;54;20455;-77
2022/02/15 00:33:03;;;;;;;7.07;4.90;;;;;;;;;;2615443;54;20437;-77
2022/02/15 00:35:29;;;;;;;7.77;4.83;;;;;;;;;;2615717;47;20427;-78
2022/02/15 00:37:55;;;;;;;7.07;4.90;;;;;;;;;;2614600;47;20423;-77
2022/02/15 00:40:24;;;;;;;8.60;4.80;;;;;;;;;;2615158;54;20987;-77
2022/02/15 00:42:50;;;;;;;5.00;4.50;;;;;;;;;;2615651;54;20420;-77
2022/02/15 00:45:17;;;;;;;7.77;4.17;;;;;;;;;;2615757;47;20457;-78
2022/02/15 00:47:43;;;;;;;8.93;4.77;;;;;;;;;;2616017;54;20973;-78
2022/02/15 00:50:10;;;;;;;16.90;5.30;;;;;;;;;;2615461;47;20439;-78
2022/02/15 00:52:36;;;;;;;6.73;5.03;;;;;;;;;;2615749;39;20852;-77
2022/02/15 00:55:04;;;;;;;11.70;5.40;;;;;;;;;;2616099;54;20426;-78
2022/02/15 00:57:31;;;;;;;5.13;4.63;;;;;;;;;;2614856;47;20410;-78
2022/02/15 00:59:57;;;;;;;9.40;5.10;;;;;;;;;;2615103;47;20457;-78
2022/02/15 01:02:24;;;;;;;5.40;4.60;;;;;;;;;;2615175;54;20425;-78
2022/02/15 01:04:50;;;;;;;9.00;4.53;;;;;;;;;;2615233;54;21426;-78
2022/02/15 01:07:17;;;;;;;7.70;4.97;;;;;;;;;;2614051;47;20462;-77
2022/02/15 01:09:43;;;;;;;6.87;5.17;;;;;;;;;;2615396;47;20395;-78
2022/02/15 01:12:09;;;;;;;6.20;4.90;;;;;;;;;;2615839;39;20791;-78
2022/02/15 01:14:36;;;;;;;6.50;4.30;;;;;;;;;;2615478;54;20420;-78
2022/02/15 01:17:02;;;;;;;7.13;4.30;;;;;;;;;;2615459;47;20437;-77
2022/02/15 01:19:29;;;;;;;9.83;5.20;;;;;;;;;;2615485;54;20427;-78
2022/02/15 01:21:55;;;;;;;6.53;4.80;;;;;;;;;;2614358;47;20986;-77
2022/02/15 01:24:21;;;;;;;4.93;4.50;;;;;;;;;;2615152;54;20420;-78
2022/02/15 01:26:48;;;;;;;8.77;5.30;;;;;;;;;;2615275;54;20427;-78
2022/02/15 01:29:14;;;;;;;6.73;5.80;;;;;;;;;;2615311;54;20558;-78
2022/02/15 01:31:40;;;;;;;5.17;4.67;;;;;;;;;;2614206;54;20454;-77
2022/02/15 01:34:06;;;;;;;10.20;4.93;;;;;;;;;;2614914;47;20419;-77
2022/02/15 01:36:33;;;;;;;11.77;5.30;;;;;;;;;;2614598;47;20527;-76
2022/02/15 01:38:59;;;;;;;8.47;5.03;;;;;;;;;;2614716;47;20451;-77
2022/02/15 01:41:25;;;;;;;5.30;4.63;;;;;;;;;;2615108;54;20555;-78
2022/02/15 01:43:52;;;;;;;11.67;4.90;;;;;;;;;;2615898;54;20438;-77
2022/02/15 01:46:18;;;;;;;6.60;5.07;;;;;;;;;;2615481;46;20412;-77
2022/02/15 01:48:47;;;;;;;9.90;4.70;;;;;;;;;;2615089;54;20420;-77
2022/02/15 01:51:15;;;;;;;7.43;4.70;;;;;;;;;;2614796;46;20435;-77
2022/02/15 01:53:43;;;;;;;7.73;5.03;;;;;;;;;;2615108;46;20427;-77
2022/02/15 01:56:10;;;;;;;9.93;4.80;;;;;;;;;;2616216;54;20420;-77
2022/02/15 01:58:40;;;;;;;7.10;4.63;;;;;;;;;;2614138;54;20466;-78
2022/02/15 02:01:12;;;;;;;13.23;5.50;;;;;;;;;;2614937;47;20411;-78
2022/02/15 02:03:43;;;;;;;13.80;5.20;;;;;;;;;;2614495;47;20470;-77
2022/02/15 02:06:11;;;;;;;10.83;4.63;;;;;;;;;;2615256;51;20419;-78
2022/02/15 02:08:38;;;;;;;8.97;5.07;;;;;;;;;;2615166;39;20817;-78
2022/02/15 02:11:04;;;;;;;7.57;5.50;;;;;;;;;;2615218;54;20491;-78
2022/02/15 02:13:37;;;;;;;7.00;5.53;;;;;;;;;;2614665;39;20856;-78
2022/02/15 02:16:06;;;;;;;10.50;5.43;;;;;;;;;;2615206;47;20434;-78
2022/02/15 02:18:44;;;;;;;6.17;5.40;;;;;;;;;;2614678;47;20443;-78
2022/02/15 02:21:13;;;;;;;8.60;5.20;;;;;;;;;;2614980;46;20423;-78
2022/02/15 02:23:41;;;;;;;10.47;6.13;;;;;;;;;;2615431;54;20411;-78
2022/02/15 02:26:19;;;;;;;12.80;6.50;;;;;;;;;;2614757;39;20849;-79
2022/02/15 02:28:46;;;;;;;7.20;5.50;;;;;;;;;;2614466;51;20427;-79
2022/02/15 02:31:13;;;;;;;6.57;5.87;;;;;;;;;;2615290;54;20446;-78
2022/02/15 02:33:51;;;;;;;6.00;5.40;;;;;;;;;;2614646;47;20435;-78
2022/02/15 02:36:17;;;;;;;11.57;6.20;;;;;;;;;;2614969;51;20419;-78
2022/02/15 02:38:44;;;;;;;6.40;5.77;;;;;;;;;;2615415;39;21140;-78
2022/02/15 02:41:10;;;;;;;13.20;5.93;;;;;;;;;;2614806;54;20411;-78
2022/02/15 02:43:37;;;;;;;15.77;7.57;;;;;;;;;;2614774;47;20414;-79
2022/02/15 02:46:04;;;;;;;10.73;7.20;;;;;;;;;;2615070;54;20435;-79
2022/02/15 02:48:32;;;;;;;10.33;6.00;;;;;;;;;;2614984;47;20424;-78
2022/02/15 02:51:00;;;;;;;9.27;6.90;;;;;;;;;;2614977;47;20990;-78
2022/02/15 02:53:27;;;;;;;8.87;6.60;;;;;;;;;;2615198;47;21038;-78
2022/02/15 02:55:54;;;;;;;6.87;6.27;;;;;;;;;;2614756;54;21145;-79
2022/02/15 02:58:20;;;;;;;13.13;6.10;;;;;;;;;;2614557;47;20994;-78
2022/02/15 03:00:46;;;;;;;12.80;6.70;;;;;;;;;;2614992;47;20423;-77
2022/02/15 03:03:16;;;;;;;10.03;7.57;;;;;;;;;;2614183;54;20423;-78
2022/02/15 03:05:49;;;;;;;12.90;7.20;;;;;;;;;;2615181;47;20428;-79
2022/02/15 03:08:17;;;;;;;14.20;8.27;;;;;;;;;;2614742;47;20436;-78
2022/02/15 03:10:45;;;;;;;10.93;7.80;;;;;;;;;;2614839;47;20974;-79
2022/02/15 03:13:21;;;;;;;10.90;8.57;;;;;;;;;;2614541;39;20838;-78
2022/02/15 03:15:47;;;;;;;10.10;8.30;;;;;;;;;;2615208;54;20400;-78
2022/02/15 03:18:14;;;;;;;9.57;8.60;;;;;;;;;;2614702;51;20465;-79
2022/02/15 03:20:40;;;;;;;13.63;8.83;;;;;;;;;;2615073;39;20859;-78
2022/02/15 03:23:06;;;;;;;13.00;9.20;;;;;;;;;;2614836;47;20415;-78
2022/02/15 03:25:34;;;;;;;11.83;9.57;;;;;;;;;;2614857;47;20412;-78
2022/02/15 03:28:02;;;;;;;12.77;10.67;;;;;;;;;;2615114;39;21107;-78
2022/02/15 03:30:28;;;;;;;14.23;9.90;;;;;;;;;;2614660;47;20447;-78
2022/02/15 03:32:54;;;;;;;11.80;9.27;;;;;;;;;;2614805;54;20427;-78
2022/02/15 03:35:21;;;;;;;16.70;10.90;;;;;;;;;;2614312;47;20439;-77
2022/02/15 03:37:57;;;;;;;14.90;10.40;;;;;;;;;;2614808;54;20414;-78
2022/02/15 03:43:04;;;;;;;14.33;8.90;;;;;;;;;;2614807;47;20436;-78
2022/02/15 03:43:11;;;;;;;13.97;10.90;;;;;;;;;;2614088;47;20523;-79
2022/02/15 03:45:38;;;;;;;11.60;9.87;;;;;;;;;;2614873;47;20415;-78
2022/02/15 03:48:14;;;;;;;13.07;10.30;;;;;;;;;;2615374;47;20453;-77
2022/02/15 03:50:43;;;;;;;26.03;11.33;;;;;;;;;;2615725;47;20411;-79
2022/02/15 03:53:10;;;;;;;22.13;12.90;;;;;;;;;;2615717;47;20469;-78
2022/02/15 03:55:37;;;;;;;16.30;10.97;;;;;;;;;;2615400;47;20415;-78
2022/02/15 03:58:05;;;;;;;18.23;12.00;;;;;;;;;;2615084;47;20424;-79
2022/02/15 04:00:31;;;;;;;17.20;12.60;;;;;;;;;;2615213;47;20477;-79
2022/02/15 04:03:07;;;;;;;16.70;10.93;;;;;;;;;;2615557;54;20433;-79
2022/02/15 04:05:35;;;;;;;18.67;13.03;;;;;;;;;;2614670;46;20423;-78
2022/02/15 04:08:01;;;;;;;18.00;11.77;;;;;;;;;;2615216;54;20422;-78
2022/02/15 04:10:29;;;;;;;16.07;11.67;;;;;;;;;;2615451;46;20499;-78
2022/02/15 04:12:55;;;;;;;15.90;11.40;;;;;;;;;;2615926;54;20431;-78
2022/02/15 04:15:21;;;;;;;16.90;11.83;;;;;;;;;;2615276;46;20412;-78
2022/02/15 04:17:54;;;;;;;22.90;12.10;;;;;;;;;;2615564;47;20424;-79
2022/02/15 04:20:20;;;;;;;17.23;12.83;;;;;;;;;;2616503;54;20445;-79
2022/02/15 04:22:46;;;;;;;16.77;13.20;;;;;;;;;;2615244;54;20430;-78
2022/02/15 04:25:14;;;;;;;18.93;11.60;;;;;;;;;;2615715;47;20427;-78
2022/02/15 04:27:40;;;;;;;17.23;11.40;;;;;;;;;;2614796;51;20522;-78
2022/02/15 04:30:07;;;;;;;20.37;13.90;;;;;;;;;;2615349;47;20996;-77
2022/02/15 04:32:34;;;;;;;18.63;12.97;;;;;;;;;;2615060;46;20431;-79
2022/02/15 04:35:01;;;;;;;21.93;12.83;;;;;;;;;;2616313;31;20894;-78
2022/02/15 04:37:28;;;;;;;16.40;11.73;;;;;;;;;;2615352;50;20991;-78
2022/02/15 04:39:55;;;;;;;16.20;11.03;;;;;;;;;;2615682;47;20427;-79
2022/02/15 04:42:22;;;;;;;17.07;12.27;;;;;;;;;;2615338;47;20499;-77
2022/02/15 04:44:50;;;;;;;16.70;11.77;;;;;;;;;;2614949;47;20415;-79
2022/02/15 04:47:26;;;;;;;18.57;11.23;;;;;;;;;;2615386;47;20430;-78
2022/02/15 04:49:52;;;;;;;17.33;11.17;;;;;;;;;;2615552;54;20484;-77
2022/02/15 04:52:42;;;;;;;18.07;11.00;;;;;;;;;;2615848;47;20454;-78
2022/02/15 04:55:17;;;;;;;13.97;11.10;;;;;;;;;;2615048;47;20416;-78
2022/02/15 04:57:51;;;;;;;20.63;13.50;;;;;;;;;;2614103;54;20431;-79
2022/02/15 05:00:18;;;;;;;18.00;10.90;;;;;;;;;;2615000;39;20843;-77
2022/02/15 05:03:01;;;;;;;19.40;10.23;;;;;;;;;;2614363;47;20555;-78
2022/02/15 05:05:30;;;;;;;16.90;12.57;;;;;;;;;;2614722;51;20955;-78
2022/02/15 05:07:56;;;;;;;18.80;11.63;;;;;;;;;;2613703;47;20527;-77
2022/02/15 05:10:23;;;;;;;17.63;12.37;;;;;;;;;;2614820;54;21347;-77
2022/02/15 05:12:49;;;;;;;18.50;11.77;;;;;;;;;;2614059;54;20564;-78
2022/02/15 05:15:27;;;;;;;18.77;13.20;;;;;;;;;;2614057;54;20439;-78
2022/02/15 05:18:13;;;;;;;17.83;12.13;;;;;;;;;;2614406;47;20447;-78
2022/02/15 05:20:44;;;;;;;16.40;11.63;;;;;;;;;;2614710;47;20408;-77
2022/02/15 05:23:11;;;;;;;24.03;13.00;;;;;;;;;;2614209;48;20442;-78
2022/02/15 05:25:41;;;;;;;18.03;12.57;;;;;;;;;;2614471;47;20456;-78
2022/02/15 05:28:15;;;;;;;17.77;11.90;;;;;;;;;;2614220;54;20428;-79
2022/02/15 05:30:42;;;;;;;21.80;11.60;;;;;;;;;;2614060;54;20451;-78
2022/02/15 05:33:14;;;;;;;14.70;10.60;;;;;;;;;;2614985;47;20423;-78
2022/02/15 05:35:50;;;;;;;17.23;12.17;;;;;;;;;;2615237;47;20554;-78
2022/02/15 05:38:18;;;;;;;23.20;14.03;;;;;;;;;;2614702;54;20999;-78
2022/02/15 05:40:47;;;;;;;20.50;12.00;;;;;;;;;;2615369;47;20411;-78
2022/02/15 05:43:14;;;;;;;16.83;10.70;;;;;;;;;;2614852;54;20423;-79
2022/02/15 05:45:42;;;;;;;16.17;12.03;;;;;;;;;;2615298;54;20465;-77
2022/02/15 05:48:13;;;;;;;19.90;13.57;;;;;;;;;;2615107;47;21121;-79
2022/02/15 05:50:50;;;;;;;19.23;11.97;;;;;;;;;;2614171;51;20499;-78
2022/02/15 05:53:21;;;;;;;20.80;13.00;;;;;;;;;;2615087;47;20415;-79
2022/02/15 05:55:51;;;;;;;16.20;11.70;;;;;;;;;;2615218;51;20423;-78
2022/02/15 05:58:18;;;;;;;16.90;11.47;;;;;;;;;;2614481;54;20427;-78
2022/02/15 06:00:47;;;;;;;20.03;13.00;;;;;;;;;;2615179;39;20851;-78
2022/02/15 06:05:58;;;;;;;15.10;11.40;;;;;;;;;;2615189;47;20402;-78
2022/02/15 06:08:27;;;;;;;18.20;12.43;;;;;;;;;;2615304;51;21014;-78
2022/02/15 06:10:58;;;;;;;21.60;12.17;;;;;;;;;;2614801;47;20411;-78
2022/02/15 06:13:40;;;;;;;21.07;13.10;;;;;;;;;;2614444;47;20431;-78
2022/02/15 06:16:12;;;;;;;23.63;14.33;;;;;;;;;;2615376;39;20817;-78
2022/02/15 06:18:51;;;;;;;20.73;13.30;;;;;;;;;;2614672;54;20420;-79
2022/02/15 06:21:18;;;;;;;22.73;13.50;;;;;;;;;;2616022;39;20846;-78
2022/02/15 06:23:44;;;;;;;24.90;13.07;;;;;;;;;;2615371;47;20423;-77
2022/02/15 06:26:13;;;;;;;18.53;13.77;;;;;;;;;;2614871;47;20420;-78
2022/02/15 06:28:59;;;;;;;19.17;13.60;;;;;;;;;;2615863;54;20423;-77
2022/02/15 06:31:32;;;;;;;19.83;13.83;;;;;;;;;;2614971;39;20851;-79
2022/02/15 06:34:00;;;;;;;22.70;13.93;;;;;;;;;;2614956;54;20458;-78
2022/02/15 06:36:26;;;;;;;21.47;14.93;;;;;;;;;;2615164;47;20436;-78
2022/02/15 06:38:57;;;;;;;22.73;13.60;;;;;;;;;;2614570;47;20457;-79
2022/02/15 06:41:24;;;;;;;18.83;12.97;;;;;;;;;;2615207;46;20425;-78
2022/02/15 06:43:58;;;;;;;20.77;14.50;;;;;;;;;;2614841;47;20946;-78
2022/02/15 06:46:33;;;;;;;24.90;13.70;;;;;;;;;;2613118;51;20510;-78
2022/02/15 06:49:06;;;;;;;23.47;13.07;;;;;;;;;;2614700;47;21297;-78
2022/02/15 06:51:33;;;;;;;17.00;11.90;;;;;;;;;;2614934;47;20976;-79
2022/02/15 06:54:06;;;;;;;30.73;14.93;;;;;;;;;;2614953;51;20431;-79
2022/02/15 06:56:44;;;;;;;21.53;12.97;;;;;;;;;;2614008;47;20467;-78
2022/02/15 06:59:14;;;;;;;18.67;12.33;;;;;;;;;;2615041;54;20424;-78
2022/02/15 07:01:43;;;;;;;18.20;12.97;;;;;;;;;;2614625;47;20566;-79
2022/02/15 07:04:14;;;;;;;17.57;11.73;;;;;;;;;;2614482;47;20431;-78
2022/02/15 07:06:41;;;;;;;24.60;12.70;;;;;;;;;;2615067;39;21100;-79
2022/02/15 07:09:08;;;;;;;21.50;13.07;;;;;;;;;;2614610;47;20416;-78
2022/02/15 07:11:54;;;;;;;15.80;11.10;;;;;;;;;;2615324;47;20428;-79
2022/02/15 07:14:22;;;;;;;13.23;10.10;;;;;;;;;;2614688;47;20514;-79
2022/02/15 07:16:48;;;;;;;22.07;11.40;;;;;;;;;;2615032;47;20511;-78
2022/02/15 07:19:15;;;;;;;17.27;12.00;;;;;;;;;;2614480;54;20416;-78
2022/02/15 07:22:02;;;;;;;15.10;10.47;;;;;;;;;;2613858;54;20470;-78
2022/02/15 07:24:54;;;;;;;16.50;10.97;;;;;;;;;;2614329;47;20427;-78
2022/02/15 07:27:29;;;;;;;17.70;11.50;;;;;;;;;;2612685;47;20420;-78
2022/02/15 07:29:58;;;;;;;17.37;10.87;;;;;;;;;;2613861;47;20577;-77
2022/02/15 07:32:32;;;;;;;14.90;10.67;;;;;;;;;;2613797;47;20423;-77
2022/02/15 07:35:00;;;;;;;18.60;10.93;;;;;;;;;;2614152;47;20471;-77
2022/02/15 07:37:28;;;;;;;16.87;10.40;;;;;;;;;;2613855;54;20414;-77
2022/02/15 07:39:54;;;;;;;16.17;12.50;;;;;;;;;;2614248;46;20500;-78
2022/02/15 07:42:21;;;;;;;23.87;14.00;;;;;;;;;;2613854;39;20834;-79
2022/02/15 07:44:47;;;;;;;23.17;13.30;;;;;;;;;;2613736;54;20423;-78
2022/02/15 07:47:14;;;;;;;20.43;15.37;;;;;;;;;;2614354;54;20420;-77
2022/02/15 07:49:43;;;;;;;21.57;13.37;;;;;;;;;;2613010;47;20451;-78
2022/02/15 07:52:10;;;;;;;27.43;15.70;;;;;;;;;;2613812;54;20412;-78
2022/02/15 07:54:37;;;;;;;26.13;16.10;;;;;;;;;;2613054;47;20559;-78
2022/02/15 07:57:04;;;;;;;21.50;15.57;;;;;;;;;;2614136;54;20416;-77
2022/02/15 07:59:32;;;;;;;26.30;16.70;;;;;;;;;;2613692;54;20473;-77
2022/02/15 08:01:58;;;;;;;27.00;17.27;;;;;;;;;;2614181;50;20443;-78
2022/02/15 08:04:24;;;;;;;23.80;17.63;;;;;;;;;;2614222;47;20546;-78
2022/02/15 08:06:55;;;;;;;22.50;15.53;;;;;;;;;;2614576;54;21189;-78
2022/02/15 08:09:24;;;;;;;23.90;16.27;;;;;;;;;;2615175;54;20415;-78
2022/02/15 08:11:54;;;;;;;21.83;15.83;;;;;;;;;;2614170;51;20458;-77
2022/02/15 08:14:22;;;;;;;24.00;16.50;;;;;;;;;;2614618;47;20411;-78
2022/02/15 08:16:48;;;;;;;20.63;15.90;;;;;;;;;;2614668;54;20442;-78
2022/02/15 08:19:15;;;;;;;19.63;15.13;;;;;;;;;;2613904;51;20432;-78
2022/02/15 08:21:41;;;;;;;27.63;16.77;;;;;;;;;;2614986;39;20816;-78
2022/02/15 08:24:08;;;;;;;28.77;17.70;;;;;;;;;;2615861;39;20783;-78
2022/02/15 08:26:34;;;;;;;31.50;16.70;;;;;;;;;;2615377;54;20574;-77
2022/02/15 08:29:00;;;;;;;25.73;17.40;;;;;;;;;;2614638;54;20410;-78
2022/02/15 08:31:26;;;;;;;28.50;18.10;;;;;;;;;;2614550;54;20972;-78
2022/02/15 08:33:53;;;;;;;26.53;17.97;;;;;;;;;;2632138;36;20470;-78
2022/02/15 08:36:19;;;;;;;22.10;15.60;;;;;;;;;;2615476;47;20956;-78
2022/02/15 08:38:46;;;;;;;23.53;16.00;;;;;;;;;;2615453;54;20420;-78
2022/02/15 08:41:13;;;;;;;25.43;16.97;;;;;;;;;;2614812;54;20418;-77
2022/02/15 08:43:40;;;;;;;25.80;17.17;;;;;;;;;;2615872;54;20403;-78
2022/02/15 08:46:06;;;;;;;22.17;18.03;;;;;;;;;;2615221;47;20415;-78
2022/02/15 08:48:32;;;;;;;22.00;15.67;;;;;;;;;;2615283;39;20538;-78
2022/02/15 08:50:58;;;;;;;20.10;16.70;;;;;;;;;;2615159;39;20849;-78
2022/02/15 08:53:25;;;;;;;21.83;16.60;;;;;;;;;;2614674;47;20450;-77
2022/02/15 08:55:51;;;;;;;25.00;16.70;;;;;;;;;;2615283;47;20975;-78
2022/02/15 08:58:18;;;;;;;23.33;17.47;;;;;;;;;;2615187;54;20411;-78
2022/02/15 09:00:44;;;;;;;33.23;18.07;;;;;;;;;;2615171;54;20470;-78
2022/02/15 09:03:10;;;;;;;30.27;17.20;;;;;;;;;;2615982;54;20506;-77
2022/02/15 09:05:36;;;;;;;29.10;18.80;;;;;;;;;;2614903;47;20515;-78
2022/02/15 09:08:03;;;;;;;21.50;16.20;;;;;;;;;;2615499;47;20707;-77
2022/02/15 09:10:29;;;;;;;20.30;15.50;;;;;;;;;;2615430;54;20523;-77
2022/02/15 09:12:55;;;;;;;26.17;18.30;;;;;;;;;;2615388;47;20566;-78
2022/02/15 09:15:21;;;;;;;25.47;17.67;;;;;;;;;;2615324;54;20427;-77
2022/02/15 09:17:48;;;;;;;19.70;16.80;;;;;;;;;;2615942;39;20815;-77
2022/02/15 09:20:14;;;;;;;27.33;17.40;;;;;;;;;;2614829;47;20436;-77
2022/02/15 09:22:41;;;;;;;25.43;17.40;;;;;;;;;;2615040;47;20986;-77
2022/02/15 09:25:07;;;;;;;21.23;17.00;;;;;;;;;;2615114;47;20424;-78
2022/02/15 09:27:33;;;;;;;24.23;17.43;;;;;;;;;;2614626;51;20442;-78
2022/02/15 09:29:59;;;;;;;22.47;15.63;;;;;;;;;;2615484;54;20407;-78
2022/02/15 09:32:26;;;;;;;24.97;17.50;;;;;;;;;;2614859;47;21041;-77
2022/02/15 09:34:52;;;;;;;23.57;17.33;;;;;;;;;;2615916;46;20443;-78
2022/02/15 09:37:18;;;;;;;23.97;16.60;;;;;;;;;;2614942;47;21027;-78
2022/02/15 09:39:48;;;;;;;24.97;17.63;;;;;;;;;;2614744;46;20420;-78
2022/02/15 09:42:14;;;;;;;21.63;16.20;;;;;;;;;;2615488;54;20418;-79
2022/02/15 09:44:40;;;;;;;20.83;16.00;;;;;;;;;;2615528;54;20420;-78
2022/02/15 09:47:08;;;;;;;21.50;17.20;;;;;;;;;;2615589;31;20882;-77
2022/02/15 09:49:48;;;;;;;21.73;17.00;;;;;;;;;;2614708;47;20424;-77
2022/02/15 09:52:15;;;;;;;18.17;15.70;;;;;;;;;;2616087;54;20453;-77
2022/02/15 09:54:42;;;;;;;24.00;16.93;;;;;;;;;;2614807;47;21087;-77
2022/02/15 09:57:09;;;;;;;28.03;18.07;;;;;;;;;;2615699;54;20491;-77
2022/02/15 09:59:36;;;;;;;19.60;17.10;;;;;;;;;;2615493;47;20466;-77
2022/02/15 10:02:09;;;;;;;20.43;15.90;;;;;;;;;;2615382;54;20408;-77
2022/02/15 10:04:36;;;;;;;23.67;16.70;;;;;;;;;;2614989;54;20419;-77
2022/02/15 10:07:04;;;;;;;17.40;12.97;;;;;;;;;;2615629;54;20435;-77
2022/02/15 10:09:31;;;;;;;20.40;16.30;;;;;;;;;;2614339;54;20459;-78
2022/02/15 10:12:07;;;;;;;22.03;14.30;;;;;;;;;;2615088;54;20423;-79
2022/02/15 10:14:41;;;;;;;16.47;13.53;;;;;;;;;;2614443;48;20439;-79
2022/02/15 10:17:08;;;;;;;20.80;15.07;;;;;;;;;;2614609;47;20439;-78
2022/02/15 10:19:36;;;;;;;13.57;12.10;;;;;;;;;;2614930;54;20412;-77
2022/02/15 10:22:04;;;;;;;16.13;12.50;;;;;;;;;;2615113;54;20402;-77
2022/02/15 10:24:31;;;;;;;15.30;12.10;;;;;;;;;;2614743;47;20429;-77
2022/02/15 10:27:02;;;;;;;17.23;12.50;;;;;;;;;;2614603;54;20434;-78
2022/02/15 10:29:29;;;;;;;13.93;12.50;;;;;;;;;;2615640;54;20417;-77
2022/02/15 10:31:59;;;;;;;15.23;11.93;;;;;;;;;;2614792;54;20490;-78
2022/02/15 10:34:26;;;;;;;14.90;11.53;;;;;;;;;;2614670;47;20987;-78
2022/02/15 10:36:59;;;;;;;17.40;12.70;;;;;;;;;;2615259;47;20435;-78
2022/02/15 10:39:35;;;;;;;18.80;12.37;;;;;;;;;;2614778;54;20407;-78
2022/02/15 10:42:06;;;;;;;15.80;12.33;;;;;;;;;;2614540;51;20439;-78
2022/02/15 10:44:35;;;;;;;13.63;12.20;;;;;;;;;;2614826;54;20408;-79
2022/02/15 10:47:01;;;;;;;13.97;12.00;;;;;;;;;;2614778;47;20431;-78
2022/02/15 10:49:28;;;;;;;15.07;12.40;;;;;;;;;;2614799;54;20414;-78
2022/02/15 10:51:55;;;;;;;19.93;12.90;;;;;;;;;;2615162;47;20423;-78
2022/02/15 10:54:21;;;;;;;13.70;12.10;;;;;;;;;;2615072;54;20423;-78
2022/02/15 10:56:48;;;;;;;16.93;11.00;;;;;;;;;;2614294;54;20416;-78
2022/02/15 10:59:14;;;;;;;20.63;11.63;;;;;;;;;;2614872;54;20441;-80
2022/02/15 11:01:43;;;;;;;13.23;10.27;;;;;;;;;;2615293;54;20416;-77
2022/02/15 11:04:10;;;;;;;17.57;11.60;;;;;;;;;;2615238;54;20515;-77
2022/02/15 11:06:36;;;;;;;14.50;9.93;;;;;;;;;;2614914;54;20413;-78
2022/02/15 11:09:05;;;;;;;13.30;10.97;;;;;;;;;;2614159;47;21073;-78
2022/02/15 11:11:38;;;;;;;16.83;12.00;;;;;;;;;;2614414;47;20435;-78
2022/02/15 11:14:05;;;;;;;12.53;10.73;;;;;;;;;;2614489;54;20408;-78
2022/02/15 11:16:34;;;;;;;16.20;11.73;;;;;;;;;;2615326;39;20793;-78
2022/02/15 11:19:10;;;;;;;19.03;11.17;;;;;;;;;;2615440;54;20416;-78
2022/02/15 11:21:36;;;;;;;13.40;11.03;;;;;;;;;;2615415;54;20420;-78
2022/02/15 11:24:07;;;;;;;12.73;11.20;;;;;;;;;;2615727;54;20980;-78
2022/02/15 11:26:39;;;;;;;13.70;12.00;;;;;;;;;;2615308;39;20820;-78
2022/02/15 11:29:08;;;;;;;19.30;11.63;;;;;;;;;;2615135;54;20415;-78
2022/02/15 11:31:36;;;;;;;15.33;11.80;;;;;;;;;;2614798;47;20435;-77
2022/02/15 11:34:03;;;;;;;11.60;9.83;;;;;;;;;;2615252;54;20438;-78
2022/02/15 11:36:30;;;;;;;15.33;12.00;;;;;;;;;;2615440;54;20526;-77
2022/02/15 11:38:56;;;;;;;11.57;10.30;;;;;;;;;;2614186;47;20426;-77
2022/02/15 11:41:23;;;;;;;15.80;9.27;;;;;;;;;;2614029;47;20447;-78
2022/02/15 11:43:57;;;;;;;13.23;9.30;;;;;;;;;;2614454;51;20613;-78
2022/02/15 11:46:29;;;;;;;10.97;8.17;;;;;;;;;;2615024;47;20515;-79
2022/02/15 11:48:56;;;;;;;9.87;7.37;;;;;;;;;;2614697;47;20428;-79
2022/02/15 11:51:23;;;;;;;11.00;6.57;;;;;;;;;;2615327;39;21583;-79
2022/02/15 11:53:55;;;;;;;10.40;6.03;;;;;;;;;;2614954;47;20518;-78
2022/02/15 11:56:22;;;;;;;7.37;5.80;;;;;;;;;;2614532;54;20423;-81
2022/02/15 11:58:51;;;;;;;5.73;5.23;;;;;;;;;;2614208;47;20442;-79
2022/02/15 12:01:24;;;;;;;5.67;5.00;;;;;;;;;;2614482;54;20426;-80
2022/02/15 12:03:51;;;;;;;8.53;6.80;;;;;;;;;;2615043;54;20414;-78
2022/02/15 12:06:18;;;;;;;6.37;5.27;;;;;;;;;;2614885;47;20435;-78
2022/02/15 12:09:04;;;;;;;5.83;5.23;;;;;;;;;;2615817;39;20858;-78
2022/02/15 12:12:04;;;;;;;4.73;4.33;;;;;;;;;;2615716;54;20419;-78
2022/02/15 12:14:31;;;;;;;6.80;5.70;;;;;;;;;;2615236;31;20877;-78
2022/02/15 12:16:58;;;;;;;6.00;4.70;;;;;;;;;;2614800;47;20514;-78
2022/02/15 12:19:25;;;;;;;7.33;5.80;;;;;;;;;;2613990;47;20433;-78
2022/02/15 12:21:52;;;;;;;9.50;6.00;;;;;;;;;;2614496;54;20998;-78
2022/02/15 12:24:18;;;;;;;9.10;5.50;;;;;;;;;;2615007;54;20982;-78
2022/02/15 12:26:54;;;;;;;5.43;4.93;;;;;;;;;;2615823;39;20808;-81
2022/02/15 12:29:21;;;;;;;5.90;5.40;;;;;;;;;;2615015;54;20411;-79
2022/02/15 12:31:52;;;;;;;6.43;4.90;;;;;;;;;;2615145;54;20435;-78
2022/02/15 12:34:18;;;;;;;6.53;4.87;;;;;;;;;;2614692;54;20575;-80
2022/02/15 12:36:45;;;;;;;7.40;4.97;;;;;;;;;;2614806;54;20439;-79
2022/02/15 12:39:11;;;;;;;5.10;4.70;;;;;;;;;;2614753;54;20419;-78
2022/02/15 12:41:38;;;;;;;5.10;4.70;;;;;;;;;;2614444;54;20972;-79
2022/02/15 12:44:05;;;;;;;3.80;3.50;;;;;;;;;;2614343;54;20531;-78
2022/02/15 12:46:32;;;;;;;4.43;4.03;;;;;;;;;;2614526;54;20427;-78
2022/02/15 12:49:01;;;;;;;3.97;3.50;;;;;;;;;;2614161;47;20980;-79
2022/02/15 12:51:31;;;;;;;5.63;4.27;;;;;;;;;;2614930;47;20435;-79
2022/02/15 12:53:59;;;;;;;5.73;4.60;;;;;;;;;;2615388;54;20439;-79
2022/02/15 12:56:26;;;;;;;6.03;3.70;;;;;;;;;;2615019;47;20431;-79
2022/02/15 12:58:55;;;;;;;3.63;3.27;;;;;;;;;;2615581;47;20570;-79
2022/02/15 13:01:21;;;;;;;5.67;3.97;;;;;;;;;;2614796;54;20427;-79
2022/02/15 13:03:51;;;;;;;7.80;3.50;;;;;;;;;;2615269;39;21075;-79
2022/02/15 13:06:18;;;;;;;3.80;3.50;;;;;;;;;;2615442;54;20454;-79
2022/02/15 13:08:45;;;;;;;4.30;3.37;;;;;;;;;;2614767;54;20411;-79
2022/02/15 13:11:12;;;;;;;10.30;3.80;;;;;;;;;;2616229;39;20513;-78
2022/02/15 13:13:39;;;;;;;3.87;3.43;;;;;;;;;;2615349;54;20435;-79
2022/02/15 13:16:06;;;;;;;4.43;3.27;;;;;;;;;;2615368;46;20415;-79
2022/02/15 13:18:45;;;;;;;4.23;3.83;;;;;;;;;;2616458;39;20818;-79
2022/02/15 13:21:12;;;;;;;4.00;3.33;;;;;;;;;;2615478;47;20523;-79
2022/02/15 13:23:39;;;;;;;3.40;3.10;;;;;;;;;;2614100;47;21322;-78
2022/02/15 13:26:09;;;;;;;4.60;3.70;;;;;;;;;;2616081;54;20523;-79
2022/02/15 13:28:43;;;;;;;4.00;3.63;;;;;;;;;;2615332;47;20423;-79
2022/02/15 13:31:10;;;;;;;3.47;3.10;;;;;;;;;;2615499;54;20447;-80
2022/02/15 13:33:46;;;;;;;6.80;3.83;;;;;;;;;;2614807;47;20990;-79
2022/02/15 13:36:13;;;;;;;4.67;3.70;;;;;;;;;;2615477;54;20399;-80
2022/02/15 13:38:40;;;;;;;8.60;4.27;;;;;;;;;;2614387;54;20427;-80
2022/02/15 13:41:07;;;;;;;5.30;3.90;;;;;;;;;;2615031;54;20428;-79
2022/02/15 13:43:33;;;;;;;4.93;4.07;;;;;;;;;;2615209;47;20435;-79
2022/02/15 13:46:00;;;;;;;4.83;3.63;;;;;;;;;;2615028;54;21458;-79
2022/02/15 13:48:27;;;;;;;4.43;3.83;;;;;;;;;;2616001;39;21369;-80
2022/02/15 13:50:58;;;;;;;4.63;4.17;;;;;;;;;;2615286;54;20422;-78
2022/02/15 13:53:25;;;;;;;4.33;4.00;;;;;;;;;;2615049;47;20439;-79
2022/02/15 13:55:51;;;;;;;3.83;3.63;;;;;;;;;;2615427;54;20431;-78
2022/02/15 13:58:17;;;;;;;4.30;3.40;;;;;;;;;;2614556;47;21489;-80
2022/02/15 14:00:45;;;;;;;4.70;3.77;;;;;;;;;;2616137;54;20455;-79
2022/02/15 14:03:12;;;;;;;9.57;3.80;;;;;;;;;;2614993;47;20500;-79
2022/02/15 14:05:38;;;;;;;4.00;3.70;;;;;;;;;;2615003;54;20408;-78
2022/02/15 14:08:06;;;;;;;3.97;3.57;;;;;;;;;;2614809;54;20414;-78
2022/02/15 14:10:33;;;;;;;3.63;3.33;;;;;;;;;;2615607;47;20430;-79
2022/02/15 14:13:00;;;;;;;4.33;3.13;;;;;;;;;;2615991;47;20490;-78
2022/02/15 14:15:28;;;;;;;3.80;3.50;;;;;;;;;;2614896;47;20578;-80
2022/02/15 14:17:57;;;;;;;5.20;3.30;;;;;;;;;;2632628;36;20505;-79
2022/02/15 14:20:24;;;;;;;7.40;3.50;;;;;;;;;;2614939;54;20496;-79
2022/02/15 14:22:51;;;;;;;3.70;3.40;;;;;;;;;;2615232;54;21007;-78
2022/02/15 14:25:17;;;;;;;4.03;3.40;;;;;;;;;;2614857;39;20481;-80
2022/02/15 14:27:44;;;;;;;5.97;3.70;;;;;;;;;;2614612;47;20437;-78
2022/02/15 14:30:15;;;;;;;7.60;3.93;;;;;;;;;;2614782;31;20910;-79
2022/02/15 14:32:42;;;;;;;5.83;3.30;;;;;;;;;;2614970;47;20420;-79
2022/02/15 14:35:08;;;;;;;2.80;2.60;;;;;;;;;;2615123;54;20424;-79
2022/02/15 14:37:34;;;;;;;3.30;2.70;;;;;;;;;;2614991;39;20837;-79
2022/02/15 14:40:01;;;;;;;5.00;3.37;;;;;;;;;;2615416;39;20809;-79